createdAt,value
2023-06-29T00:02:10.669Z,29.42
2023-06-29T00:04:37.181Z,31.42
2023-06-29T00:07:05.155Z,31.25
2023-06-29T00:09:32.936Z,27.27
2023-06-29T00:11:59.424Z,27.40
2023-06-29T00:14:25.947Z,30.35
2023-06-29T00:16:52.437Z,32.08
2023-06-29T00:19:19.019Z,28.17
2023-06-29T00:21:45.510Z,31.80
2023-06-29T00:24:13.249Z,30.08
2023-06-29T00:26:39.720Z,29.00
2023-06-29T00:29:06.723Z,30.45
2023-06-29T00:31:33.235Z,32.45
2023-06-29T00:33:59.795Z,30.63
2023-06-29T00:36:26.277Z,32.17
2023-06-29T00:38:52.734Z,30.00
2023-06-29T00:41:20.702Z,31.50
2023-06-29T00:43:47.211Z,33.88
2023-06-29T00:46:16.194Z,31.45
2023-06-29T00:48:42.787Z,29.65
2023-06-29T00:51:09.431Z,30.10
2023-06-29T00:53:36.064Z,29.75
2023-06-29T00:56:03.018Z,32.75
2023-06-29T00:58:31.827Z,31.15
2023-06-29T01:00:58.381Z,29.65
2023-06-29T01:03:25.139Z,30.95
2023-06-29T01:05:57.181Z,30.95
2023-06-29T01:08:28.694Z,31.55
2023-06-29T01:10:56.444Z,31.05
2023-06-29T01:13:24.309Z,31.27
2023-06-29T01:15:53.618Z,34.95
2023-06-29T01:18:20.992Z,30.42
2023-06-29T01:20:49.442Z,30.67
2023-06-29T01:23:24.585Z,32.17
2023-06-29T01:25:52.547Z,28.50
2023-06-29T01:28:19.057Z,30.73
2023-06-29T01:30:45.501Z,27.30
2023-06-29T01:33:12.259Z,33.15
2023-06-29T01:35:38.770Z,29.92
2023-06-29T01:38:11.354Z,32.30
2023-06-29T01:40:41.499Z,31.33
2023-06-29T01:43:09.360Z,33.13
2023-06-29T01:45:37.342Z,30.08
2023-06-29T01:48:04.218Z,27.75
2023-06-29T01:50:31.252Z,34.15
2023-06-29T01:52:57.725Z,32.42
2023-06-29T01:55:25.064Z,29.05
2023-06-29T01:57:51.593Z,28.33
2023-06-29T02:00:19.567Z,31.40
2023-06-29T02:02:46.172Z,30.58
2023-06-29T02:05:13.084Z,30.00
2023-06-29T02:07:39.542Z,33.47
2023-06-29T02:10:09.416Z,31.67
2023-06-29T02:12:38.472Z,29.83
2023-06-29T02:15:05.306Z,29.35
2023-06-29T02:17:33.256Z,28.88
2023-06-29T02:19:59.783Z,29.33
2023-06-29T02:22:26.276Z,31.33
2023-06-29T02:24:52.748Z,30.67
2023-06-29T02:27:19.320Z,30.65
2023-06-29T02:29:45.767Z,28.15
2023-06-29T02:32:12.254Z,28.83
2023-06-29T02:34:40.070Z,26.73
2023-06-29T02:37:06.570Z,28.60
2023-06-29T02:39:33.024Z,27.42
2023-06-29T02:41:59.468Z,28.35
2023-06-29T02:44:25.973Z,32.15
2023-06-29T02:46:52.408Z,28.17
2023-06-29T02:49:19.090Z,27.77
2023-06-29T02:51:46.869Z,30.65
2023-06-29T02:54:13.301Z,25.83
2023-06-29T02:56:39.829Z,27.55
2023-06-29T02:59:06.386Z,28.15
2023-06-29T03:01:33.035Z,27.02
2023-06-29T03:03:59.671Z,25.63
2023-06-29T03:06:26.159Z,28.85
2023-06-29T03:08:54.111Z,25.65
2023-06-29T03:11:20.621Z,26.23
2023-06-29T03:13:47.148Z,22.90
2023-06-29T03:16:13.688Z,26.95
2023-06-29T03:18:40.168Z,26.27
2023-06-29T03:21:16.247Z,26.70
2023-06-29T03:23:44.703Z,27.50
2023-06-29T03:26:12.524Z,27.13
2023-06-29T03:28:39.004Z,26.13
2023-06-29T03:31:05.877Z,25.58
2023-06-29T03:33:32.438Z,25.08
2023-06-29T03:35:58.918Z,23.83
2023-06-29T03:38:25.389Z,25.13
2023-06-29T03:40:51.894Z,27.90
2023-06-29T03:43:19.676Z,24.23
2023-06-29T03:45:46.303Z,24.55
2023-06-29T03:48:13.112Z,24.45
2023-06-29T03:50:39.762Z,23.15
2023-06-29T03:53:06.314Z,24.40
2023-06-29T03:55:32.818Z,23.55
2023-06-29T03:57:59.295Z,23.13
2023-06-29T04:00:27.088Z,23.08
2023-06-29T04:02:53.734Z,21.95
2023-06-29T04:05:20.323Z,23.60
2023-06-29T04:07:46.847Z,24.35
2023-06-29T04:10:13.366Z,24.05
2023-06-29T04:12:39.913Z,23.55
2023-06-29T04:15:07.426Z,23.25
2023-06-29T04:17:35.181Z,24.13
2023-06-29T04:20:01.731Z,20.67
2023-06-29T04:22:28.229Z,21.80
2023-06-29T04:24:54.756Z,20.35
2023-06-29T04:27:21.231Z,21.55
2023-06-29T04:29:47.727Z,22.45
2023-06-29T04:32:14.225Z,21.95
2023-06-29T04:34:42.259Z,20.98
2023-06-29T04:37:08.764Z,20.92
2023-06-29T04:39:35.236Z,20.27
2023-06-29T04:42:02.877Z,21.38
2023-06-29T04:44:29.855Z,20.10
2023-06-29T04:46:56.288Z,17.90
2023-06-29T04:49:22.786Z,20.88
2023-06-29T04:51:50.625Z,21.02
2023-06-29T04:54:17.112Z,19.02
2023-06-29T04:56:43.712Z,19.48
2023-06-29T04:59:10.142Z,18.13
2023-06-29T05:01:36.673Z,20.58
2023-06-29T05:04:03.349Z,17.85
2023-06-29T05:06:29.995Z,19.02
2023-06-29T05:08:57.766Z,18.23
2023-06-29T05:11:24.251Z,19.55
2023-06-29T05:13:50.777Z,17.30
2023-06-29T05:16:17.288Z,25.30
2023-06-29T05:18:43.780Z,23.38
2023-06-29T05:21:10.197Z,25.83
2023-06-29T05:23:36.672Z,27.05
2023-06-29T05:26:04.460Z,26.25
2023-06-29T05:28:31.028Z,23.15
2023-06-29T05:30:57.602Z,22.35
2023-06-29T05:33:24.119Z,21.90
2023-06-29T05:35:50.596Z,23.02
2023-06-29T05:38:17.103Z,19.65
2023-06-29T05:40:44.136Z,19.02
2023-06-29T05:43:12.172Z,19.35
2023-06-29T05:45:38.864Z,18.85
2023-06-29T05:48:05.812Z,18.33
2023-06-29T05:50:32.341Z,22.35
2023-06-29T05:52:58.851Z,17.67
2023-06-29T05:55:25.410Z,18.20
2023-06-29T05:57:51.869Z,20.77
2023-06-29T06:00:20.211Z,18.58
2023-06-29T06:02:46.774Z,17.75
2023-06-29T06:05:13.371Z,19.70
2023-06-29T06:07:40.117Z,19.63
2023-06-29T06:10:07.094Z,17.63
2023-06-29T06:12:33.566Z,18.00
2023-06-29T06:15:00.051Z,18.92
2023-06-29T06:17:28.060Z,19.65
2023-06-29T06:19:55.489Z,24.00
2023-06-29T06:22:21.930Z,21.73
2023-06-29T06:24:48.452Z,26.50
2023-06-29T06:27:14.959Z,23.88
2023-06-29T06:29:41.430Z,25.08
2023-06-29T06:32:08.214Z,28.13
2023-06-29T06:34:36.143Z,30.60
2023-06-29T06:37:02.794Z,25.90
2023-06-29T06:39:30.272Z,32.28
2023-06-29T06:41:56.830Z,30.40
2023-06-29T06:44:23.295Z,27.38
2023-06-29T06:46:49.754Z,30.38
2023-06-29T06:49:16.379Z,28.95
2023-06-29T06:51:44.289Z,28.48
2023-06-29T06:54:10.806Z,25.23
2023-06-29T06:56:37.337Z,26.98
2023-06-29T06:59:04.351Z,25.98
2023-06-29T07:01:30.956Z,27.63
2023-06-29T07:03:57.593Z,25.00
2023-06-29T07:06:24.141Z,30.73
2023-06-29T07:08:51.926Z,32.95
2023-06-29T07:11:18.590Z,29.65
2023-06-29T07:13:45.054Z,27.63
2023-06-29T07:16:11.561Z,26.08
2023-06-29T07:18:38.079Z,28.02
2023-06-29T07:26:04.960Z,26.67
2023-06-29T07:28:31.431Z,26.42
2023-06-29T07:30:57.894Z,23.08
2023-06-29T07:33:24.406Z,23.10
2023-06-29T07:35:51.075Z,20.13
2023-06-29T07:38:17.626Z,19.73
2023-06-29T07:40:44.615Z,20.33
2023-06-29T07:43:13.426Z,22.00
2023-06-29T07:45:39.924Z,16.92
2023-06-29T07:48:06.652Z,16.90
2023-06-29T07:50:33.217Z,15.13
2023-06-29T07:52:59.770Z,15.25
2023-06-29T07:55:26.564Z,13.93
2023-06-29T08:00:23.862Z,11.10
2023-06-29T08:02:50.397Z,12.30
2023-06-29T08:07:46.623Z,10.52
2023-06-29T08:10:13.233Z,9.30
2023-06-29T08:12:39.738Z,10.55
2023-06-29T08:15:06.978Z,9.25
2023-06-29T08:17:34.790Z,7.70
2023-06-29T08:20:01.245Z,8.13
2023-06-29T08:22:27.814Z,8.77
2023-06-29T08:24:54.407Z,6.25
2023-06-29T08:27:20.887Z,6.22
2023-06-29T08:29:47.476Z,5.03
2023-06-29T08:32:14.257Z,5.60
2023-06-29T08:34:42.094Z,4.72
2023-06-29T08:37:08.566Z,5.38
2023-06-29T08:39:35.206Z,9.75
2023-06-29T08:42:04.971Z,9.05
2023-06-29T08:44:33.538Z,4.68
2023-06-29T08:47:02.627Z,5.57
2023-06-29T08:49:29.917Z,4.75
2023-06-29T08:52:00.056Z,4.78
2023-06-29T08:54:28.966Z,6.68
2023-06-29T08:56:56.864Z,3.45
2023-06-29T08:59:24.271Z,6.82
2023-06-29T09:01:52.141Z,7.63
2023-06-29T09:04:18.647Z,5.47
2023-06-29T09:06:45.166Z,7.57
2023-06-29T09:09:13.045Z,5.00
2023-06-29T09:11:40.794Z,5.05
2023-06-29T09:14:08.827Z,3.30
2023-06-29T09:16:35.617Z,7.43
2023-06-29T09:19:03.388Z,4.65
2023-06-29T09:21:29.911Z,13.63
2023-06-29T09:23:57.183Z,6.80
2023-06-29T09:26:28.046Z,5.88
2023-06-29T09:28:58.265Z,5.32
2023-06-29T09:31:26.016Z,6.57
2023-06-29T09:33:52.759Z,6.57
2023-06-29T09:36:25.210Z,2.90
2023-06-29T09:38:51.701Z,6.05
2023-06-29T09:41:18.364Z,4.20
2023-06-29T09:43:46.335Z,5.85
2023-06-29T09:46:12.785Z,4.35
2023-06-29T09:51:19.489Z,7.43
2023-06-29T09:53:46.446Z,7.93
2023-06-29T09:56:13.906Z,6.82
2023-06-29T09:58:41.250Z,5.50
2023-06-29T10:01:09.340Z,5.68
2023-06-29T10:03:36.010Z,7.32
2023-06-29T10:06:13.212Z,4.60
2023-06-29T10:08:41.312Z,9.35
2023-06-29T10:11:07.830Z,4.40
2023-06-29T10:13:38.491Z,5.05
2023-06-29T10:16:10.168Z,2.95
2023-06-29T10:18:41.915Z,5.18
2023-06-29T10:21:09.113Z,4.60
2023-06-29T10:23:36.129Z,6.30
2023-06-29T10:26:05.620Z,5.50
2023-06-29T10:28:34.357Z,3.50
2023-06-29T10:31:01.067Z,4.53
2023-06-29T10:33:29.068Z,4.63
2023-06-29T10:35:57.312Z,6.60
2023-06-29T10:38:31.256Z,4.40
2023-06-29T10:40:57.951Z,5.38
2023-06-29T10:43:26.367Z,4.10
2023-06-29T10:45:52.856Z,4.78
2023-06-29T10:48:38.329Z,5.75
2023-06-29T10:51:10.841Z,5.15
2023-06-29T10:53:40.061Z,4.82
2023-06-29T10:56:26.476Z,3.63
2023-06-29T10:58:54.172Z,4.57
2023-06-29T11:01:20.954Z,5.97
2023-06-29T11:03:47.624Z,5.80
2023-06-29T11:06:28.515Z,3.85
2023-06-29T11:09:01.762Z,2.75
2023-06-29T11:11:29.373Z,2.88
2023-06-29T11:13:56.668Z,4.85
2023-06-29T11:16:23.246Z,3.95
2023-06-29T11:18:49.872Z,4.57
2023-06-29T11:21:20.131Z,3.80
2023-06-29T11:23:50.323Z,2.85
2023-06-29T11:26:16.927Z,5.35
2023-06-29T11:28:43.520Z,4.43
2023-06-29T11:31:10.058Z,6.22
2023-06-29T11:33:47.546Z,3.15
2023-06-29T11:36:14.049Z,4.63
2023-06-29T11:38:42.074Z,2.60
2023-06-29T11:41:09.629Z,3.30
2023-06-29T11:43:36.326Z,4.82
2023-06-29T11:46:03.449Z,3.70
2023-06-29T11:48:29.938Z,2.30
2023-06-29T11:50:59.908Z,3.13
2023-06-29T11:53:26.567Z,4.60
2023-06-29T11:55:55.334Z,4.57
2023-06-29T11:58:21.972Z,5.20
2023-06-29T12:00:55.502Z,3.58
2023-06-29T12:03:22.141Z,3.47
2023-06-29T12:08:15.920Z,3.05
2023-06-29T12:10:42.581Z,3.40
2023-06-29T12:13:11.745Z,8.80
2023-06-29T12:15:38.437Z,3.63
2023-06-29T12:18:11.818Z,3.53
2023-06-29T12:20:40.556Z,4.38
2023-06-29T12:23:07.887Z,7.93
2023-06-29T12:25:43.085Z,3.75
2023-06-29T12:28:09.715Z,6.35
2023-06-29T12:30:37.792Z,3.17
2023-06-29T12:33:04.312Z,3.42
2023-06-29T12:35:30.807Z,2.88
2023-06-29T12:37:57.317Z,2.30
2023-06-29T12:40:23.826Z,5.45
2023-06-29T12:42:50.284Z,3.53
2023-06-29T12:45:16.842Z,3.83
2023-06-29T12:47:44.764Z,2.58
2023-06-29T12:50:11.682Z,3.42
2023-06-29T12:52:38.389Z,4.90
2023-06-29T12:55:05.338Z,2.85
2023-06-29T12:57:31.800Z,11.52
2023-06-29T13:00:00.357Z,4.05
2023-06-29T13:02:27.593Z,2.85
2023-06-29T13:04:55.563Z,4.50
2023-06-29T13:07:22.160Z,5.38
2023-06-29T13:09:49.100Z,1.90
2023-06-29T13:12:16.064Z,4.25
2023-06-29T13:14:43.161Z,3.17
2023-06-29T13:17:10.124Z,2.63
2023-06-29T13:19:36.669Z,3.97
2023-06-29T13:22:04.850Z,4.13
2023-06-29T13:24:32.467Z,3.83
2023-06-29T13:26:59.379Z,4.25
2023-06-29T13:29:25.974Z,3.97
2023-06-29T13:31:52.533Z,5.05
2023-06-29T13:34:19.020Z,3.90
2023-06-29T13:36:45.472Z,5.07
2023-06-29T13:39:13.242Z,3.78
2023-06-29T13:41:41.198Z,3.75
2023-06-29T13:44:08.907Z,3.72
2023-06-29T13:46:36.143Z,3.60
2023-06-29T13:49:04.019Z,4.82
2023-06-29T13:51:32.845Z,5.97
2023-06-29T13:54:01.444Z,6.53
2023-06-29T13:56:29.934Z,6.50
2023-06-29T13:58:56.525Z,5.30
2023-06-29T14:01:23.014Z,3.42
2023-06-29T14:03:49.664Z,5.82
2023-06-29T14:06:16.541Z,8.15
2023-06-29T14:08:43.010Z,5.47
2023-06-29T14:11:09.484Z,4.18
2023-06-29T14:13:37.266Z,4.57
2023-06-29T14:16:03.879Z,10.45
2023-06-29T14:18:30.448Z,10.13
2023-06-29T14:20:57.132Z,10.32
2023-06-29T14:23:24.632Z,3.58
2023-06-29T14:25:51.154Z,7.38
2023-06-29T14:28:17.863Z,8.32
2023-06-29T14:30:45.884Z,5.80
2023-06-29T14:33:27.684Z,5.97
2023-06-29T14:35:55.100Z,10.07
2023-06-29T14:38:21.655Z,7.10
2023-06-29T14:40:48.153Z,9.07
2023-06-29T14:43:14.665Z,7.20
2023-06-29T14:45:41.752Z,6.93
2023-06-29T14:48:09.720Z,8.40
2023-06-29T14:50:36.250Z,4.50
2023-06-29T14:53:03.145Z,7.38
2023-06-29T14:55:30.003Z,5.93
2023-06-29T14:57:56.651Z,6.72
2023-06-29T15:00:23.169Z,5.13
2023-06-29T15:02:49.757Z,4.57
2023-06-29T15:05:17.621Z,5.13
2023-06-29T15:07:44.248Z,3.95
2023-06-29T15:10:11.183Z,8.23
2023-06-29T15:12:37.677Z,4.85
2023-06-29T15:15:04.752Z,6.43
2023-06-29T15:17:31.276Z,7.88
2023-06-29T15:19:57.729Z,4.78
2023-06-29T15:22:25.599Z,4.68
2023-06-29T15:24:52.784Z,4.72
2023-06-29T15:27:19.296Z,3.20
2023-06-29T15:29:45.823Z,5.20
2023-06-29T15:32:12.262Z,3.45
2023-06-29T15:34:38.862Z,5.40
2023-06-29T15:37:05.636Z,4.65
2023-06-29T15:39:33.418Z,3.03
2023-06-29T15:41:59.861Z,3.97
2023-06-29T15:44:26.388Z,5.88
2023-06-29T15:46:54.659Z,3.88
2023-06-29T15:49:21.601Z,7.22
2023-06-29T15:51:48.607Z,4.70
2023-06-29T15:54:15.332Z,9.30
2023-06-29T15:56:43.351Z,4.85
2023-06-29T15:59:10.491Z,3.60
2023-06-29T16:01:37.009Z,3.25
2023-06-29T16:04:04.172Z,5.03
2023-06-29T16:06:32.276Z,3.35
2023-06-29T16:08:59.467Z,2.53
2023-06-29T16:11:26.112Z,2.10
2023-06-29T16:13:55.728Z,2.67
2023-06-29T16:16:22.360Z,2.53
2023-06-29T16:18:48.853Z,3.50
2023-06-29T16:21:15.398Z,3.75
2023-06-29T16:23:41.847Z,1.80
2023-06-29T16:26:08.361Z,5.65
2023-06-29T16:28:35.081Z,2.17
2023-06-29T16:31:03.195Z,3.03
2023-06-29T16:33:29.746Z,2.08
2023-06-29T16:35:56.221Z,2.33
2023-06-29T16:38:22.838Z,4.13
2023-06-29T16:40:49.717Z,4.05
2023-06-29T16:43:16.226Z,2.10
2023-06-29T16:45:43.089Z,2.00
2023-06-29T16:48:11.181Z,1.45
2023-06-29T16:50:37.767Z,3.63
2023-06-29T16:53:04.286Z,2.13
2023-06-29T16:55:30.802Z,4.10
2023-06-29T16:57:57.332Z,1.60
2023-06-29T17:00:24.013Z,1.42
2023-06-29T17:02:50.539Z,1.92
2023-06-29T17:05:18.430Z,1.33
2023-06-29T17:07:44.862Z,1.40
2023-06-29T17:10:11.519Z,1.95
2023-06-29T17:12:38.003Z,2.22
2023-06-29T17:15:05.281Z,2.15
2023-06-29T17:17:31.887Z,3.05
2023-06-29T17:19:58.450Z,0.90
2023-06-29T17:22:26.256Z,2.05
2023-06-29T17:24:53.073Z,1.60
2023-06-29T17:27:19.567Z,1.80
2023-06-29T17:29:47.879Z,2.08
2023-06-29T17:32:14.415Z,1.92
2023-06-29T17:34:40.911Z,1.65
2023-06-29T17:37:07.936Z,1.50
2023-06-29T17:39:35.825Z,1.90
2023-06-29T17:42:02.681Z,2.38
2023-06-29T17:44:29.406Z,1.58
2023-06-29T17:46:55.904Z,2.25
2023-06-29T17:49:22.425Z,1.63
2023-06-29T17:51:48.896Z,2.03
2023-06-29T17:54:15.466Z,2.78
2023-06-29T17:56:43.285Z,1.45
2023-06-29T17:59:09.774Z,1.35
2023-06-29T18:01:36.627Z,1.88
2023-06-29T18:04:03.509Z,1.73
2023-06-29T18:06:30.237Z,1.40
2023-06-29T18:08:56.690Z,1.05
2023-06-29T18:11:23.185Z,1.63
2023-06-29T18:13:51.134Z,1.67
2023-06-29T18:16:17.780Z,1.70
2023-06-29T18:18:44.307Z,1.55
2023-06-29T18:21:10.819Z,1.85
2023-06-29T18:23:37.349Z,1.52
2023-06-29T18:26:03.838Z,1.23
2023-06-29T18:28:30.323Z,1.45
2023-06-29T18:30:58.175Z,1.83
2023-06-29T18:33:24.666Z,1.95
2023-06-29T18:35:51.622Z,1.20
2023-06-29T18:38:18.195Z,1.30
2023-06-29T18:40:44.668Z,2.35
2023-06-29T18:43:11.232Z,1.40
2023-06-29T18:45:37.906Z,1.17
2023-06-29T18:48:06.090Z,1.40
2023-06-29T18:50:32.685Z,1.05
2023-06-29T18:52:59.196Z,1.38
2023-06-29T18:55:25.690Z,1.00
2023-06-29T18:57:52.288Z,1.45
2023-06-29T19:00:19.221Z,2.28
2023-06-29T19:02:45.794Z,1.25
2023-06-29T19:05:13.717Z,1.35
2023-06-29T19:07:40.280Z,1.30
2023-06-29T19:10:07.295Z,1.48
2023-06-29T19:12:33.804Z,1.30
2023-06-29T19:15:00.371Z,1.10
2023-06-29T19:17:27.119Z,1.05
2023-06-29T19:19:53.674Z,1.67
2023-06-29T19:22:21.475Z,0.95
2023-06-29T19:24:47.915Z,1.20
2023-06-29T19:27:14.475Z,1.20
2023-06-29T19:29:41.057Z,1.08
2023-06-29T19:32:08.486Z,1.77
2023-06-29T19:34:35.077Z,1.92
2023-06-29T19:37:01.556Z,1.25
2023-06-29T19:39:29.419Z,1.40
2023-06-29T19:41:55.857Z,2.35
2023-06-29T19:44:22.339Z,1.08
2023-06-29T19:46:48.946Z,1.15
2023-06-29T19:49:15.555Z,1.60
2023-06-29T19:51:42.022Z,1.17
2023-06-29T19:54:08.658Z,1.05
2023-06-29T19:56:36.499Z,1.10
2023-06-29T19:59:03.042Z,1.38
2023-06-29T20:01:29.485Z,1.10
2023-06-29T20:03:56.019Z,0.85
2023-06-29T20:06:22.554Z,1.00
2023-06-29T20:08:48.990Z,1.45
2023-06-29T20:11:15.622Z,1.10
2023-06-29T20:13:43.508Z,1.75
2023-06-29T20:16:10.042Z,2.78
2023-06-29T20:18:36.491Z,0.77
2023-06-29T20:21:03.183Z,1.73
2023-06-29T20:23:29.716Z,1.95
2023-06-29T20:25:56.192Z,2.63
2023-06-29T20:28:22.681Z,1.75
2023-06-29T20:30:50.501Z,1.13
2023-06-29T20:33:16.921Z,1.67
2023-06-29T20:35:43.588Z,1.10
2023-06-29T20:38:10.248Z,1.65
2023-06-29T20:40:36.790Z,1.10
2023-06-29T20:43:03.333Z,1.10
2023-06-29T20:45:29.820Z,1.10
2023-06-29T20:47:57.622Z,3.47
2023-06-29T20:50:24.178Z,1.20
2023-06-29T20:52:50.825Z,1.95
2023-06-29T20:55:17.358Z,2.28
2023-06-29T20:57:43.857Z,0.93
2023-06-29T21:00:11.551Z,1.35
2023-06-29T21:02:38.256Z,1.40
2023-06-29T21:05:07.037Z,2.60
2023-06-29T21:07:33.777Z,3.40
2023-06-29T21:10:00.455Z,1.70
2023-06-29T21:12:27.173Z,1.52
2023-06-29T21:14:54.152Z,2.13
2023-06-29T21:17:21.170Z,2.25
2023-06-29T21:19:48.036Z,1.73
2023-06-29T21:22:18.175Z,2.53
2023-06-29T21:24:45.650Z,1.65
2023-06-29T21:27:15.001Z,1.13
2023-06-29T21:29:45.004Z,1.75
2023-06-29T21:32:12.556Z,2.35
2023-06-29T21:34:39.532Z,2.30
2023-06-29T21:37:07.332Z,1.65
2023-06-29T21:39:35.169Z,1.77
2023-06-29T21:42:01.782Z,3.58
2023-06-29T21:44:28.281Z,2.88
2023-06-29T21:46:55.001Z,1.70
2023-06-29T21:49:21.886Z,2.83
2023-06-29T21:51:48.539Z,1.95
2023-06-29T21:54:15.347Z,1.63
2023-06-29T21:56:43.424Z,1.95
2023-06-29T21:59:09.951Z,1.30
2023-06-29T22:01:36.860Z,2.80
2023-06-29T22:04:03.641Z,1.80
2023-06-29T22:06:30.319Z,2.17
2023-06-29T22:08:57.153Z,2.67
2023-06-29T22:11:24.484Z,1.70
2023-06-29T22:13:52.281Z,2.85
2023-06-29T22:16:19.003Z,2.20
2023-06-29T22:18:45.771Z,1.23
2023-06-29T22:21:12.326Z,1.50
2023-06-29T22:23:38.831Z,1.92
2023-06-29T22:26:05.366Z,1.98
2023-06-29T22:28:32.070Z,2.35
2023-06-29T22:30:59.922Z,2.28
2023-06-29T22:33:26.537Z,3.70
2023-06-29T22:35:53.185Z,2.22
2023-06-29T22:38:19.700Z,2.47
2023-06-29T22:40:46.283Z,1.85
2023-06-29T22:43:12.864Z,2.05
2023-06-29T22:45:39.398Z,3.10
2023-06-29T22:48:07.529Z,2.53
2023-06-29T22:50:34.477Z,2.92
2023-06-29T22:53:01.003Z,1.83
2023-06-29T22:55:27.714Z,1.60
2023-06-29T22:57:54.229Z,1.55
2023-06-29T23:00:20.970Z,2.45
2023-06-29T23:02:47.626Z,3.53
2023-06-29T23:05:15.905Z,3.53
2023-06-29T23:07:42.810Z,2.10
2023-06-29T23:10:09.980Z,2.97
2023-06-29T23:12:36.528Z,1.70
2023-06-29T23:15:03.256Z,2.63
2023-06-29T23:17:29.883Z,1.52
2023-06-29T23:19:56.419Z,3.10
2023-06-29T23:22:24.502Z,1.98
2023-06-29T23:24:51.037Z,5.20
2023-06-29T23:27:17.557Z,2.25
2023-06-29T23:29:44.122Z,3.95
2023-06-29T23:32:11.146Z,2.88
2023-06-29T23:34:37.684Z,2.70
2023-06-29T23:37:04.589Z,1.85
2023-06-29T23:39:32.394Z,2.67
2023-06-29T23:41:58.968Z,2.15
2023-06-29T23:44:25.495Z,2.13
2023-06-29T23:46:52.060Z,1.65
2023-06-29T23:49:20.053Z,4.10
2023-06-29T23:51:46.845Z,3.22
2023-06-29T23:54:13.863Z,1.98
2023-06-29T23:56:42.882Z,1.77
2023-06-29T23:59:10.126Z,3.03
